createdAt,value
2023-02-11T00:01:20.702Z,20.58
2023-02-11T00:03:47.628Z,26.55
2023-02-11T00:06:14.659Z,26.83
2023-02-11T00:08:41.647Z,22.05
2023-02-11T00:11:20.114Z,16.95
2023-02-11T00:13:47.829Z,24.58
2023-02-11T00:16:20.647Z,21.83
2023-02-11T00:18:47.917Z,17.77
2023-02-11T00:21:20.818Z,32.95
2023-02-11T00:23:47.903Z,18.30
2023-02-11T00:26:19.554Z,23.42
2023-02-11T00:28:48.128Z,26.45
2023-02-11T00:31:16.347Z,19.40
2023-02-11T00:33:44.233Z,28.15
2023-02-11T00:36:17.980Z,23.95
2023-02-11T00:38:48.168Z,30.92
2023-02-11T00:41:15.773Z,24.83
2023-02-11T00:43:43.120Z,33.42
2023-02-11T00:46:10.565Z,35.40
2023-02-11T00:48:37.480Z,29.70
2023-02-11T00:51:04.838Z,24.13
2023-02-11T00:53:32.856Z,23.75
2023-02-11T00:56:00.981Z,30.60
2023-02-11T00:58:28.428Z,24.48
2023-02-11T01:00:55.947Z,29.08
2023-02-11T01:03:22.893Z,22.67
2023-02-11T01:05:49.997Z,17.73
2023-02-11T01:08:17.040Z,22.55
2023-02-11T01:10:44.884Z,31.55
2023-02-11T01:13:11.885Z,20.88
2023-02-11T01:15:38.773Z,30.52
2023-02-11T01:18:05.971Z,30.40
2023-02-11T01:20:32.917Z,22.38
2023-02-11T01:22:59.815Z,28.13
2023-02-11T01:25:26.655Z,31.08
2023-02-11T01:27:53.500Z,20.92
2023-02-11T01:30:20.333Z,31.33
2023-02-11T01:32:47.578Z,40.28
2023-02-11T01:35:14.538Z,20.83
2023-02-11T01:37:41.906Z,23.02
2023-02-11T01:40:14.830Z,27.02
2023-02-11T01:42:42.604Z,24.25
2023-02-11T01:45:47.151Z,20.45
2023-02-11T01:48:28.562Z,24.30
2023-02-11T01:51:01.815Z,34.53
2023-02-11T01:53:49.227Z,23.60
2023-02-11T01:56:35.965Z,29.60
2023-02-11T01:59:18.542Z,28.20
2023-02-11T02:01:52.061Z,24.45
2023-02-11T02:04:20.080Z,31.10
2023-02-11T02:07:06.665Z,26.20
2023-02-11T02:09:42.164Z,26.77
2023-02-11T02:12:09.143Z,31.25
2023-02-11T02:14:41.216Z,22.67
2023-02-11T02:17:18.176Z,24.77
2023-02-11T02:20:08.712Z,29.65
2023-02-11T02:23:13.897Z,22.77
2023-02-11T02:26:04.263Z,26.48
2023-02-11T02:29:08.529Z,22.95
2023-02-11T02:31:57.454Z,21.30
2023-02-11T02:34:41.972Z,28.40
2023-02-11T02:37:15.941Z,25.77
2023-02-11T02:39:45.809Z,25.90
2023-02-11T02:42:13.937Z,26.73
2023-02-11T02:44:40.837Z,22.88
2023-02-11T02:47:07.653Z,28.48
2023-02-11T02:49:34.442Z,30.08
2023-02-11T02:52:28.042Z,30.83
2023-02-11T02:55:04.031Z,31.20
2023-02-11T02:57:33.944Z,26.48
2023-02-11T03:00:22.035Z,32.00
2023-02-11T03:03:14.292Z,29.58
2023-02-11T03:06:11.580Z,23.65
2023-02-11T03:08:46.196Z,29.00
2023-02-11T03:11:17.172Z,33.13
2023-02-11T03:13:45.288Z,23.90
2023-02-11T03:16:39.130Z,22.88
2023-02-11T03:19:15.040Z,26.48
2023-02-11T03:21:44.264Z,32.40
2023-02-11T03:24:21.597Z,30.17
2023-02-11T03:26:58.164Z,29.33
2023-02-11T03:29:34.381Z,34.22
2023-02-11T03:32:17.326Z,27.95
2023-02-11T03:34:47.811Z,17.70
2023-02-11T03:37:53.121Z,29.98
2023-02-11T03:40:26.807Z,27.25
2023-02-11T03:43:05.198Z,41.30
2023-02-11T03:45:32.230Z,26.75
2023-02-11T03:48:11.770Z,25.73
2023-02-11T03:50:40.061Z,26.85
2023-02-11T03:53:09.302Z,32.97
2023-02-11T03:55:39.523Z,22.40
2023-02-11T03:58:06.858Z,31.15
2023-02-11T04:00:41.103Z,28.15
2023-02-11T04:03:09.564Z,31.73
2023-02-11T04:05:37.014Z,34.30
2023-02-11T04:08:04.681Z,38.38
2023-02-11T04:10:31.612Z,33.97
2023-02-11T04:12:58.618Z,37.13
2023-02-11T04:15:25.765Z,34.03
2023-02-11T04:17:52.641Z,27.30
2023-02-11T04:20:19.664Z,41.20
2023-02-11T04:22:46.546Z,32.50
2023-02-11T04:25:13.580Z,30.20
2023-02-11T04:27:40.458Z,30.13
2023-02-11T04:30:08.361Z,32.38
2023-02-11T04:32:35.273Z,40.50
2023-02-11T04:35:02.935Z,40.88
2023-02-11T04:37:29.824Z,34.88
2023-02-11T04:39:56.804Z,41.08
2023-02-11T04:42:23.730Z,43.65
2023-02-11T04:44:50.524Z,35.55
2023-02-11T04:47:18.157Z,38.50
2023-02-11T04:49:45.029Z,36.92
2023-02-11T04:52:12.048Z,39.10
2023-02-11T04:54:39.190Z,37.42
2023-02-11T04:57:06.062Z,35.42
2023-02-11T04:59:32.943Z,38.00
2023-02-11T05:01:59.832Z,38.65
2023-02-11T05:04:26.775Z,40.50
2023-02-11T05:06:53.729Z,42.90
2023-02-11T05:09:20.655Z,39.88
2023-02-11T05:11:47.564Z,37.08
2023-02-11T05:14:14.388Z,50.65
2023-02-11T05:16:41.365Z,52.05
2023-02-11T05:19:08.303Z,42.90
2023-02-11T05:21:35.225Z,37.47
2023-02-11T05:24:02.081Z,34.47
2023-02-11T05:26:28.894Z,42.85
2023-02-11T05:28:56.359Z,44.95
2023-02-11T05:31:23.205Z,45.20
2023-02-11T05:33:50.058Z,40.90
2023-02-11T05:36:16.996Z,45.30
2023-02-11T05:38:43.916Z,46.90
2023-02-11T05:41:11.860Z,46.42
2023-02-11T05:43:38.798Z,40.30
2023-02-11T05:46:06.565Z,43.65
2023-02-11T05:48:33.426Z,45.00
2023-02-11T05:51:00.330Z,48.50
2023-02-11T05:53:27.194Z,51.55
2023-02-11T05:55:54.122Z,43.30
2023-02-11T05:58:20.971Z,43.40
2023-02-11T06:00:47.839Z,47.15
2023-02-11T06:03:14.797Z,42.03
2023-02-11T06:05:43.641Z,52.75
2023-02-11T06:08:10.571Z,46.20
2023-02-11T06:10:37.473Z,49.22
2023-02-11T06:13:04.737Z,59.72
2023-02-11T06:15:31.570Z,54.70
2023-02-11T06:17:58.764Z,46.85
2023-02-11T06:20:25.653Z,54.75
2023-02-11T06:22:52.498Z,55.08
2023-02-11T06:25:19.429Z,56.58
2023-02-11T06:27:46.319Z,55.80
2023-02-11T06:30:13.888Z,58.85
2023-02-11T06:32:45.422Z,50.80
2023-02-11T06:35:14.364Z,56.83
2023-02-11T06:37:42.218Z,51.53
2023-02-11T06:40:10.503Z,53.17
2023-02-11T06:42:39.158Z,58.05
2023-02-11T06:45:09.056Z,52.88
2023-02-11T06:47:36.084Z,54.20
2023-02-11T06:50:03.119Z,60.53
2023-02-11T06:52:29.997Z,64.90
2023-02-11T06:54:56.934Z,67.15
2023-02-11T06:57:23.799Z,62.33
2023-02-11T06:59:50.696Z,57.80
2023-02-11T07:02:20.411Z,54.80
2023-02-11T07:04:47.813Z,61.85
2023-02-11T07:07:14.897Z,57.35
2023-02-11T07:09:41.908Z,58.58
2023-02-11T07:12:10.401Z,58.53
2023-02-11T07:14:37.595Z,53.47
2023-02-11T07:17:04.838Z,60.10
2023-02-11T07:19:31.862Z,55.17
2023-02-11T07:21:58.731Z,57.05
2023-02-11T07:24:25.733Z,64.53
2023-02-11T07:26:54.026Z,67.95
2023-02-11T07:29:20.953Z,58.33
2023-02-11T07:31:47.976Z,55.03
2023-02-11T07:34:14.967Z,68.65
2023-02-11T07:36:43.702Z,55.80
2023-02-11T07:39:10.711Z,69.57
2023-02-11T07:41:38.790Z,50.60
2023-02-11T07:44:06.478Z,61.63
2023-02-11T07:46:35.731Z,64.53
2023-02-11T07:49:02.832Z,59.63
2023-02-11T07:51:31.294Z,56.00
2023-02-11T07:53:59.986Z,62.45
2023-02-11T07:56:27.617Z,56.95
2023-02-11T07:58:56.754Z,60.42
2023-02-11T08:01:28.274Z,57.70
2023-02-11T08:04:00.392Z,82.53
2023-02-11T08:06:32.915Z,57.10
2023-02-11T08:09:05.684Z,61.80
2023-02-11T08:11:32.880Z,53.47
2023-02-11T08:13:59.791Z,53.05
2023-02-11T08:16:35.126Z,65.20
2023-02-11T08:19:10.357Z,61.65
2023-02-11T08:21:37.543Z,63.85
2023-02-11T08:24:04.737Z,70.72
2023-02-11T08:26:34.697Z,70.00
2023-02-11T08:29:03.573Z,71.75
2023-02-11T08:31:35.129Z,64.18
2023-02-11T08:34:02.540Z,60.85
2023-02-11T08:36:33.221Z,91.25
2023-02-11T08:39:18.094Z,60.40
2023-02-11T08:41:48.999Z,66.88
2023-02-11T08:44:16.868Z,61.40
2023-02-11T08:46:43.757Z,58.58
2023-02-11T08:49:10.586Z,70.70
2023-02-11T08:51:37.662Z,63.35
2023-02-11T08:54:06.143Z,58.17
2023-02-11T08:56:33.669Z,61.55
2023-02-11T08:59:00.530Z,55.97
2023-02-11T09:01:30.273Z,56.95
2023-02-11T09:03:58.403Z,58.13
2023-02-11T09:06:26.560Z,58.20
2023-02-11T09:08:55.552Z,56.70
2023-02-11T09:11:27.090Z,61.33
2023-02-11T09:13:54.614Z,69.25
2023-02-11T09:16:33.159Z,73.55
2023-02-11T09:19:01.805Z,64.47
2023-02-11T09:21:29.516Z,55.88
2023-02-11T09:23:57.034Z,66.85
2023-02-11T09:26:30.086Z,54.85
2023-02-11T09:28:57.636Z,58.70
2023-02-11T09:31:26.675Z,62.30
2023-02-11T09:33:57.003Z,54.00
2023-02-11T09:36:30.915Z,48.30
2023-02-11T09:39:02.183Z,52.67
2023-02-11T09:42:00.630Z,51.40
2023-02-11T09:44:31.493Z,51.13
2023-02-11T09:47:02.376Z,50.75
2023-02-11T09:49:50.103Z,61.35
2023-02-11T09:52:38.059Z,49.65
2023-02-11T09:55:29.148Z,50.30
2023-02-11T09:57:56.682Z,50.85
2023-02-11T10:00:40.015Z,50.88
2023-02-11T10:03:33.048Z,43.35
2023-02-11T10:06:08.844Z,45.13
2023-02-11T10:08:54.449Z,53.85
2023-02-11T10:11:39.401Z,39.33
2023-02-11T10:14:24.309Z,48.55
2023-02-11T10:16:57.477Z,42.67
2023-02-11T10:20:08.961Z,42.78
2023-02-11T10:22:43.093Z,45.00
2023-02-11T10:25:40.553Z,37.80
2023-02-11T10:28:15.178Z,37.10
2023-02-11T10:30:49.763Z,47.13
2023-02-11T10:33:32.553Z,38.33
2023-02-11T10:36:00.202Z,31.27
2023-02-11T10:38:28.092Z,32.92
2023-02-11T10:40:55.024Z,25.63
2023-02-11T10:43:26.229Z,32.22
2023-02-11T10:45:54.978Z,34.22
2023-02-11T10:48:40.658Z,39.40
2023-02-11T10:51:18.735Z,29.20
2023-02-11T10:53:47.308Z,25.98
2023-02-11T10:56:25.805Z,24.02
2023-02-11T10:59:27.293Z,20.92
2023-02-11T11:02:00.947Z,18.73
2023-02-11T11:04:32.111Z,15.95
2023-02-11T11:07:13.186Z,27.83
2023-02-11T11:09:53.640Z,21.33
2023-02-11T11:12:28.160Z,23.75
2023-02-11T11:15:02.083Z,25.63
2023-02-11T11:17:29.822Z,22.65
2023-02-11T11:20:35.515Z,27.52
2023-02-11T11:23:14.654Z,20.90
2023-02-11T11:25:45.946Z,22.55
2023-02-11T11:28:25.208Z,16.65
2023-02-11T11:30:54.194Z,23.20
2023-02-11T11:33:24.901Z,18.20
2023-02-11T11:36:02.812Z,28.80
2023-02-11T11:38:31.469Z,16.83
2023-02-11T11:41:24.123Z,19.00
2023-02-11T11:46:38.226Z,13.60
2023-02-11T11:49:31.188Z,17.98
2023-02-11T11:52:36.308Z,21.38
2023-02-11T11:55:09.407Z,22.63
2023-02-11T11:57:38.812Z,18.30
2023-02-11T12:00:13.732Z,18.85
2023-02-11T12:02:59.565Z,17.20
2023-02-11T12:05:58.363Z,12.95
2023-02-11T12:08:44.024Z,11.07
2023-02-11T12:11:27.432Z,15.68
2023-02-11T12:14:21.772Z,16.23
2023-02-11T12:16:53.144Z,19.83
2023-02-11T12:19:24.519Z,27.48
2023-02-11T12:22:02.033Z,16.57
2023-02-11T12:25:03.621Z,11.90
2023-02-11T12:27:39.294Z,13.82
2023-02-11T12:30:21.272Z,12.02
2023-02-11T12:33:06.349Z,10.02
2023-02-11T12:35:42.109Z,29.83
2023-02-11T12:38:20.944Z,13.30
2023-02-11T12:40:56.686Z,10.95
2023-02-11T12:43:38.519Z,10.25
2023-02-11T12:46:29.668Z,10.48
2023-02-11T12:49:02.808Z,14.60
2023-02-11T12:51:47.977Z,9.88
2023-02-11T12:54:20.690Z,15.85
2023-02-11T12:56:59.224Z,15.43
2023-02-11T12:59:28.922Z,10.25
2023-02-11T13:01:57.173Z,12.85
2023-02-11T13:04:33.104Z,8.93
2023-02-11T13:07:09.729Z,14.30
2023-02-11T13:09:42.190Z,15.30
2023-02-11T13:12:31.782Z,14.25
2023-02-11T13:15:05.202Z,19.88
2023-02-11T13:18:04.157Z,10.07
2023-02-11T13:21:21.669Z,6.18
2023-02-11T13:24:13.978Z,8.85
2023-02-11T13:27:08.155Z,16.40
2023-02-11T13:30:01.836Z,9.20
2023-02-11T13:32:56.583Z,8.73
2023-02-11T13:35:33.937Z,11.02
2023-02-11T13:38:03.254Z,14.70
2023-02-11T13:40:39.284Z,9.00
2023-02-11T13:43:19.093Z,9.40
2023-02-11T13:45:48.713Z,10.27
2023-02-11T13:48:30.301Z,9.40
2023-02-11T13:51:02.185Z,22.80
2023-02-11T13:53:30.431Z,25.27
2023-02-11T13:56:22.316Z,17.13
2023-02-11T13:58:51.034Z,16.02
2023-02-11T14:01:41.609Z,35.08
2023-02-11T14:04:49.129Z,33.50
2023-02-11T14:07:52.380Z,19.27
2023-02-11T14:10:41.035Z,35.50
2023-02-11T14:13:28.979Z,13.00
2023-02-11T14:16:15.856Z,14.02
2023-02-11T14:18:56.041Z,25.45
2023-02-11T14:21:24.122Z,15.95
2023-02-11T14:23:55.998Z,21.60
2023-02-11T14:26:31.265Z,13.23
2023-02-11T14:29:35.652Z,27.73
2023-02-11T14:32:39.577Z,11.35
2023-02-11T14:35:18.321Z,18.73
2023-02-11T14:38:00.243Z,11.05
2023-02-11T14:41:01.787Z,17.25
2023-02-11T14:43:35.122Z,13.30
2023-02-11T14:46:03.185Z,8.52
2023-02-11T14:48:39.088Z,13.95
2023-02-11T14:51:13.617Z,10.90
2023-02-11T14:53:45.188Z,31.38
2023-02-11T14:56:21.106Z,8.98
2023-02-11T14:58:49.459Z,51.13
2023-02-11T15:01:41.077Z,14.27
2023-02-11T15:04:27.691Z,12.03
2023-02-11T15:06:56.846Z,22.55
2023-02-11T15:09:41.190Z,106.70
2023-02-11T15:12:19.940Z,50.10
2023-02-11T15:14:49.642Z,31.48
2023-02-11T15:17:21.693Z,53.50
2023-02-11T15:19:53.160Z,40.50
2023-02-11T15:22:24.753Z,45.60
2023-02-11T15:24:59.250Z,22.17
2023-02-11T15:27:26.207Z,124.80
2023-02-11T15:29:53.055Z,18.42
2023-02-11T15:32:25.473Z,35.65
2023-02-11T15:34:54.137Z,18.75
2023-02-11T15:37:29.834Z,47.53
2023-02-11T15:40:10.843Z,30.15
2023-02-11T15:42:50.901Z,13.43
2023-02-11T15:45:28.943Z,13.02
2023-02-11T15:48:10.648Z,32.97
2023-02-11T15:50:41.021Z,19.35
2023-02-11T15:53:29.960Z,22.55
2023-02-11T15:56:13.716Z,46.70
2023-02-11T15:58:43.703Z,100.15
2023-02-11T16:01:12.820Z,50.97
2023-02-11T16:03:41.741Z,36.80
2023-02-11T16:06:24.184Z,35.45
2023-02-11T16:11:55.014Z,12.82
2023-02-11T16:14:29.352Z,12.70
2023-02-11T16:17:05.280Z,12.00
2023-02-11T16:19:33.972Z,20.30
2023-02-11T16:22:10.414Z,29.17
2023-02-11T16:24:38.944Z,42.42
2023-02-11T16:27:22.122Z,22.10
2023-02-11T16:29:50.398Z,16.05
2023-02-11T16:32:18.550Z,25.75
2023-02-11T16:34:45.866Z,70.65
2023-02-11T16:37:12.745Z,29.25
2023-02-11T16:39:39.512Z,14.27
2023-02-11T16:42:09.127Z,19.80
2023-02-11T16:44:36.062Z,13.32
2023-02-11T16:47:06.706Z,11.30
2023-02-11T16:49:40.442Z,16.95
2023-02-11T16:52:12.649Z,12.57
2023-02-11T16:57:24.242Z,14.73
2023-02-11T16:59:52.103Z,8.57
2023-02-11T17:02:29.206Z,13.13
2023-02-11T17:04:58.783Z,16.13
2023-02-11T17:07:25.966Z,22.63
2023-02-11T17:09:52.963Z,21.20
2023-02-11T17:12:20.833Z,21.67
2023-02-11T17:14:47.784Z,12.30
2023-02-11T17:17:14.609Z,12.82
2023-02-11T17:19:41.448Z,18.17
2023-02-11T17:22:08.554Z,12.88
2023-02-11T17:24:35.670Z,15.02
2023-02-11T17:27:02.603Z,13.13
2023-02-11T17:29:29.563Z,20.98
2023-02-11T17:31:57.113Z,14.48
2023-02-11T17:34:24.155Z,19.90
2023-02-11T17:36:52.029Z,18.23
2023-02-11T17:39:21.005Z,12.32
2023-02-11T17:41:48.065Z,16.35
2023-02-11T17:44:16.312Z,14.40
2023-02-11T17:46:43.820Z,17.15
2023-02-11T17:49:12.048Z,17.35
2023-02-11T17:51:39.622Z,13.48
2023-02-11T17:54:10.460Z,14.20
2023-02-11T17:56:37.665Z,12.75
2023-02-11T17:59:05.720Z,14.13
2023-02-11T18:01:34.301Z,14.27
2023-02-11T18:04:01.680Z,14.85
2023-02-11T18:06:29.150Z,19.13
2023-02-11T18:08:59.636Z,22.25
2023-02-11T18:11:27.890Z,17.42
2023-02-11T18:13:54.962Z,18.20
2023-02-11T18:16:23.168Z,15.45
2023-02-11T18:18:50.703Z,19.25
2023-02-11T18:21:22.093Z,24.48
2023-02-11T18:23:49.468Z,34.17
2023-02-11T18:26:18.993Z,25.50
2023-02-11T18:28:46.283Z,21.17
2023-02-11T18:31:14.134Z,19.70
2023-02-11T18:33:42.483Z,20.52
2023-02-11T18:36:11.826Z,31.25
2023-02-11T18:38:39.081Z,21.75
2023-02-11T18:41:07.371Z,26.55
2023-02-11T18:43:34.818Z,22.42
2023-02-11T18:46:06.281Z,40.55
2023-02-11T18:48:33.290Z,25.00
2023-02-11T18:51:00.145Z,23.08
2023-02-11T18:53:27.059Z,24.27
2023-02-11T18:55:54.422Z,26.30
2023-02-11T18:58:21.679Z,21.20
2023-02-11T19:00:49.649Z,19.08
2023-02-11T19:03:17.052Z,18.80
2023-02-11T19:05:49.411Z,15.98
2023-02-11T19:08:17.261Z,30.92
2023-02-11T19:10:46.748Z,26.40
2023-02-11T19:13:14.237Z,21.88
2023-02-11T19:15:42.758Z,21.35
2023-02-11T19:18:09.906Z,34.35
2023-02-11T19:20:42.790Z,23.02
2023-02-11T19:23:10.325Z,39.58
2023-02-11T19:25:37.552Z,64.45
2023-02-11T19:28:04.446Z,42.33
2023-02-11T19:30:31.424Z,23.00
2023-02-11T19:32:58.418Z,34.08
2023-02-11T19:35:25.791Z,39.13
2023-02-11T19:37:52.860Z,25.88
2023-02-11T19:40:21.216Z,24.85
2023-02-11T19:42:48.280Z,59.42
2023-02-11T19:45:15.461Z,69.85
2023-02-11T19:47:42.299Z,37.35
2023-02-11T19:50:09.971Z,29.58
2023-02-11T19:52:40.765Z,29.65
2023-02-11T19:55:08.267Z,14.75
2023-02-11T19:57:36.463Z,18.35
2023-02-11T20:00:04.284Z,20.55
2023-02-11T20:02:39.772Z,17.48
2023-02-11T20:05:07.410Z,13.10
2023-02-11T20:07:35.162Z,15.00
2023-02-11T20:10:02.183Z,18.63
2023-02-11T20:12:29.255Z,13.90
2023-02-11T20:14:56.149Z,14.05
2023-02-11T20:17:23.086Z,17.83
2023-02-11T20:19:50.018Z,20.70
2023-02-11T20:22:16.804Z,16.08
2023-02-11T20:24:43.707Z,17.38
2023-02-11T20:27:11.678Z,17.48
2023-02-11T20:29:39.798Z,14.70
2023-02-11T20:32:07.647Z,14.00
2023-02-11T20:34:34.861Z,14.02
2023-02-11T20:37:03.000Z,17.98
2023-02-11T20:39:29.944Z,13.88
2023-02-11T20:41:57.543Z,15.63
2023-02-11T20:44:24.705Z,16.67
2023-02-11T20:46:52.165Z,16.15
2023-02-11T20:49:21.618Z,16.73
2023-02-11T20:51:49.269Z,13.95
2023-02-11T20:54:18.599Z,20.88
2023-02-11T20:56:48.203Z,12.52
2023-02-11T20:59:16.907Z,15.15
2023-02-11T21:01:47.099Z,16.85
2023-02-11T21:04:17.292Z,18.35
2023-02-11T21:06:50.795Z,22.02
2023-02-11T21:09:20.558Z,17.27
2023-02-11T21:11:48.411Z,17.52
2023-02-11T21:14:15.636Z,15.80
2023-02-11T21:16:42.618Z,16.52
2023-02-11T21:19:09.514Z,19.67
2023-02-11T21:21:37.313Z,19.40
2023-02-11T21:24:05.287Z,17.42
2023-02-11T21:26:32.304Z,13.98
2023-02-11T21:28:59.152Z,16.23
2023-02-11T21:31:28.665Z,20.58
2023-02-11T21:33:56.670Z,19.08
2023-02-11T21:36:24.084Z,20.55
2023-02-11T21:38:51.063Z,13.45
2023-02-11T21:41:19.785Z,18.67
2023-02-11T21:43:46.600Z,20.10
2023-02-11T21:46:15.257Z,17.60
2023-02-11T21:48:42.508Z,18.83
2023-02-11T21:51:16.452Z,19.80
2023-02-11T21:53:43.412Z,17.40
2023-02-11T21:56:18.190Z,20.95
2023-02-11T21:58:46.135Z,21.20
2023-02-11T22:01:22.457Z,21.45
2023-02-11T22:03:49.768Z,18.65
2023-02-11T22:06:21.290Z,21.58
2023-02-11T22:08:51.359Z,25.83
2023-02-11T22:11:18.249Z,24.17
2023-02-11T22:13:46.063Z,23.25
2023-02-11T22:16:16.142Z,23.35
2023-02-11T22:18:46.312Z,23.38
2023-02-11T22:21:16.823Z,26.08
2023-02-11T22:23:43.997Z,22.02
2023-02-11T22:26:20.279Z,22.48
2023-02-11T22:28:47.613Z,25.15
2023-02-11T22:31:23.264Z,21.45
2023-02-11T22:33:50.547Z,27.63
2023-02-11T22:36:23.233Z,24.67
2023-02-11T22:38:50.631Z,25.45
2023-02-11T22:41:18.155Z,30.13
2023-02-11T22:43:45.920Z,26.50
2023-02-11T22:46:16.095Z,23.65
2023-02-11T22:48:43.403Z,19.88
2023-02-11T22:51:13.208Z,27.45
2023-02-11T22:53:40.847Z,29.27
2023-02-11T22:56:15.015Z,35.03
2023-02-11T22:58:42.424Z,30.67
2023-02-11T23:01:09.347Z,31.98
2023-02-11T23:03:36.446Z,31.85
2023-02-11T23:06:03.445Z,33.40
2023-02-11T23:08:31.407Z,22.95
2023-02-11T23:11:14.197Z,33.95
2023-02-11T23:13:43.229Z,27.70
2023-02-11T23:16:14.165Z,23.45
2023-02-11T23:18:42.755Z,22.88
2023-02-11T23:21:16.610Z,26.58
2023-02-11T23:23:44.500Z,22.67
2023-02-11T23:26:13.313Z,27.20
2023-02-11T23:28:40.975Z,27.75
2023-02-11T23:31:25.357Z,25.63
2023-02-11T23:33:52.607Z,27.52
2023-02-11T23:36:20.537Z,34.53
2023-02-11T23:38:47.744Z,31.02
2023-02-11T23:41:15.617Z,28.60
2023-02-11T23:43:42.693Z,28.80
2023-02-11T23:46:11.655Z,29.48
2023-02-11T23:48:40.429Z,30.80
2023-02-11T23:51:09.733Z,26.88
2023-02-11T23:53:38.168Z,27.73
2023-02-11T23:56:15.270Z,29.20
2023-02-11T23:58:42.168Z,26.92
